sensor_id;sensor_type;location;lat;lon;timestamp;P1;durP1;ratioP1;P2;durP2;ratioP2
68484;SDS011;55472;50.060;21.960;2023-03-03T00:01:39;164.90;;;49.92;;
68484;SDS011;55472;50.060;21.960;2023-03-03T00:04:06;151.23;;;47.17;;
68484;SDS011;55472;50.060;21.960;2023-03-03T00:06:32;147.70;;;47.78;;
68484;SDS011;55472;50.060;21.960;2023-03-03T00:08:58;154.60;;;47.57;;
68484;SDS011;55472;50.060;21.960;2023-03-03T00:11:24;154.85;;;47.15;;
68484;SDS011;55472;50.060;21.960;2023-03-03T00:13:52;153.98;;;47.38;;
68484;SDS011;55472;50.060;21.960;2023-03-03T00:18:54;146.60;;;47.22;;
68484;SDS011;55472;50.060;21.960;2023-03-03T00:23:51;137.60;;;45.20;;
68484;SDS011;55472;50.060;21.960;2023-03-03T00:26:24;152.68;;;45.78;;
68484;SDS011;55472;50.060;21.960;2023-03-03T00:29:18;137.43;;;41.95;;
68484;SDS011;55472;50.060;21.960;2023-03-03T00:31:53;129.55;;;41.45;;
68484;SDS011;55472;50.060;21.960;2023-03-03T00:34:24;127.83;;;41.83;;
68484;SDS011;55472;50.060;21.960;2023-03-03T00:36:53;135.70;;;41.70;;
68484;SDS011;55472;50.060;21.960;2023-03-03T00:42:12;122.32;;;37.60;;
68484;SDS011;55472;50.060;21.960;2023-03-03T00:49:54;119.65;;;37.95;;
68484;SDS011;55472;50.060;21.960;2023-03-03T00:53:04;114.97;;;35.10;;
68484;SDS011;55472;50.060;21.960;2023-03-03T00:55:38;101.78;;;33.17;;
68484;SDS011;55472;50.060;21.960;2023-03-03T00:58:05;107.10;;;32.88;;
68484;SDS011;55472;50.060;21.960;2023-03-03T01:00:32;97.40;;;32.33;;
68484;SDS011;55472;50.060;21.960;2023-03-03T01:03:00;99.75;;;30.63;;
68484;SDS011;55472;50.060;21.960;2023-03-03T01:05:30;92.70;;;29.88;;
68484;SDS011;55472;50.060;21.960;2023-03-03T01:07:56;94.00;;;32.20;;
68484;SDS011;55472;50.060;21.960;2023-03-03T01:10:22;94.25;;;30.38;;
68484;SDS011;55472;50.060;21.960;2023-03-03T01:12:51;96.90;;;30.40;;
68484;SDS011;55472;50.060;21.960;2023-03-03T01:15:17;108.80;;;35.92;;
68484;SDS011;55472;50.060;21.960;2023-03-03T01:17:44;114.45;;;36.83;;
68484;SDS011;55472;50.060;21.960;2023-03-03T01:20:11;101.78;;;31.63;;
68484;SDS011;55472;50.060;21.960;2023-03-03T01:22:39;97.13;;;31.38;;
68484;SDS011;55472;50.060;21.960;2023-03-03T01:25:06;105.13;;;33.77;;
68484;SDS011;55472;50.060;21.960;2023-03-03T01:27:34;94.32;;;31.60;;
68484;SDS011;55472;50.060;21.960;2023-03-03T01:30:01;107.75;;;33.33;;
68484;SDS011;55472;50.060;21.960;2023-03-03T01:32:29;99.35;;;33.20;;
68484;SDS011;55472;50.060;21.960;2023-03-03T01:34:56;104.40;;;30.23;;
68484;SDS011;55472;50.060;21.960;2023-03-03T01:37:22;112.60;;;32.43;;
68484;SDS011;55472;50.060;21.960;2023-03-03T01:39:49;107.07;;;34.03;;
68484;SDS011;55472;50.060;21.960;2023-03-03T01:42:20;107.78;;;34.97;;
68484;SDS011;55472;50.060;21.960;2023-03-03T01:44:46;108.00;;;35.00;;
68484;SDS011;55472;50.060;21.960;2023-03-03T01:47:14;102.35;;;33.30;;
68484;SDS011;55472;50.060;21.960;2023-03-03T01:50:01;102.87;;;32.97;;
68484;SDS011;55472;50.060;21.960;2023-03-03T01:52:35;98.53;;;32.08;;
68484;SDS011;55472;50.060;21.960;2023-03-03T01:55:15;108.55;;;33.55;;
68484;SDS011;55472;50.060;21.960;2023-03-03T01:57:50;100.65;;;33.45;;
68484;SDS011;55472;50.060;21.960;2023-03-03T02:00:23;111.45;;;36.78;;
68484;SDS011;55472;50.060;21.960;2023-03-03T02:02:49;110.70;;;35.47;;
68484;SDS011;55472;50.060;21.960;2023-03-03T02:05:17;122.65;;;37.97;;
68484;SDS011;55472;50.060;21.960;2023-03-03T02:07:43;102.07;;;33.17;;
68484;SDS011;55472;50.060;21.960;2023-03-03T02:10:11;108.85;;;33.30;;
68484;SDS011;55472;50.060;21.960;2023-03-03T02:12:51;120.18;;;37.67;;
68484;SDS011;55472;50.060;21.960;2023-03-03T02:15:30;114.50;;;38.20;;
68484;SDS011;55472;50.060;21.960;2023-03-03T02:18:03;114.20;;;38.65;;
68484;SDS011;55472;50.060;21.960;2023-03-03T02:28:38;125.87;;;37.93;;
68484;SDS011;55472;50.060;21.960;2023-03-03T02:31:07;122.53;;;38.15;;
68484;SDS011;55472;50.060;21.960;2023-03-03T02:33:41;105.25;;;36.78;;
68484;SDS011;55472;50.060;21.960;2023-03-03T02:36:13;112.35;;;35.75;;
68484;SDS011;55472;50.060;21.960;2023-03-03T02:44:33;111.53;;;34.70;;
68484;SDS011;55472;50.060;21.960;2023-03-03T02:47:00;103.90;;;33.15;;
68484;SDS011;55472;50.060;21.960;2023-03-03T02:49:28;93.97;;;33.25;;
68484;SDS011;55472;50.060;21.960;2023-03-03T02:51:56;105.68;;;36.75;;
68484;SDS011;55472;50.060;21.960;2023-03-03T02:54:25;117.33;;;39.43;;
68484;SDS011;55472;50.060;21.960;2023-03-03T02:56:55;110.53;;;36.65;;
68484;SDS011;55472;50.060;21.960;2023-03-03T02:59:22;109.80;;;34.58;;
68484;SDS011;55472;50.060;21.960;2023-03-03T03:01:49;106.50;;;36.63;;
68484;SDS011;55472;50.060;21.960;2023-03-03T03:04:23;102.53;;;34.00;;
68484;SDS011;55472;50.060;21.960;2023-03-03T03:06:51;111.67;;;34.43;;
68484;SDS011;55472;50.060;21.960;2023-03-03T03:09:19;99.90;;;33.38;;
68484;SDS011;55472;50.060;21.960;2023-03-03T03:11:47;114.45;;;35.97;;
68484;SDS011;55472;50.060;21.960;2023-03-03T03:14:13;102.60;;;34.28;;
68484;SDS011;55472;50.060;21.960;2023-03-03T03:16:40;96.85;;;31.83;;
68484;SDS011;55472;50.060;21.960;2023-03-03T03:19:06;94.10;;;31.83;;
68484;SDS011;55472;50.060;21.960;2023-03-03T03:21:33;97.95;;;32.45;;
68484;SDS011;55472;50.060;21.960;2023-03-03T03:24:00;107.80;;;35.47;;
68484;SDS011;55472;50.060;21.960;2023-03-03T03:26:26;107.13;;;35.45;;
68484;SDS011;55472;50.060;21.960;2023-03-03T03:28:52;105.97;;;33.35;;
68484;SDS011;55472;50.060;21.960;2023-03-03T03:31:19;113.87;;;34.90;;
68484;SDS011;55472;50.060;21.960;2023-03-03T03:33:46;107.55;;;36.10;;
68484;SDS011;55472;50.060;21.960;2023-03-03T03:36:13;108.93;;;36.63;;
68484;SDS011;55472;50.060;21.960;2023-03-03T03:38:39;113.60;;;38.97;;
68484;SDS011;55472;50.060;21.960;2023-03-03T03:41:06;109.35;;;34.33;;
68484;SDS011;55472;50.060;21.960;2023-03-03T03:43:32;117.67;;;33.40;;
68484;SDS011;55472;50.060;21.960;2023-03-03T03:45:59;108.65;;;36.90;;
68484;SDS011;55472;50.060;21.960;2023-03-03T03:48:25;102.90;;;34.72;;
68484;SDS011;55472;50.060;21.960;2023-03-03T03:50:52;101.75;;;35.28;;
68484;SDS011;55472;50.060;21.960;2023-03-03T03:53:19;120.10;;;36.80;;
68484;SDS011;55472;50.060;21.960;2023-03-03T03:55:45;118.00;;;36.90;;
68484;SDS011;55472;50.060;21.960;2023-03-03T03:58:15;107.40;;;36.22;;
68484;SDS011;55472;50.060;21.960;2023-03-03T04:00:43;121.90;;;39.35;;
68484;SDS011;55472;50.060;21.960;2023-03-03T04:03:11;110.28;;;38.17;;
68484;SDS011;55472;50.060;21.960;2023-03-03T04:05:38;125.20;;;37.63;;
68484;SDS011;55472;50.060;21.960;2023-03-03T04:08:05;110.07;;;36.10;;
68484;SDS011;55472;50.060;21.960;2023-03-03T04:10:31;112.05;;;35.72;;
68484;SDS011;55472;50.060;21.960;2023-03-03T04:12:58;111.78;;;36.15;;
68484;SDS011;55472;50.060;21.960;2023-03-03T04:15:24;111.00;;;36.75;;
68484;SDS011;55472;50.060;21.960;2023-03-03T04:17:50;86.10;;;29.90;;
68484;SDS011;55472;50.060;21.960;2023-03-03T04:20:17;108.63;;;35.93;;
68484;SDS011;55472;50.060;21.960;2023-03-03T04:22:43;102.93;;;33.88;;
68484;SDS011;55472;50.060;21.960;2023-03-03T04:25:13;107.57;;;34.00;;
68484;SDS011;55472;50.060;21.960;2023-03-03T04:27:42;108.60;;;35.15;;
68484;SDS011;55472;50.060;21.960;2023-03-03T04:30:08;107.50;;;34.35;;
68484;SDS011;55472;50.060;21.960;2023-03-03T04:32:36;108.63;;;34.00;;
68484;SDS011;55472;50.060;21.960;2023-03-03T04:35:03;114.70;;;34.83;;
68484;SDS011;55472;50.060;21.960;2023-03-03T04:37:30;111.80;;;35.30;;
68484;SDS011;55472;50.060;21.960;2023-03-03T04:39:56;107.78;;;33.63;;
68484;SDS011;55472;50.060;21.960;2023-03-03T04:42:22;110.78;;;34.42;;
68484;SDS011;55472;50.060;21.960;2023-03-03T04:44:48;113.77;;;33.87;;
68484;SDS011;55472;50.060;21.960;2023-03-03T04:47:14;114.80;;;36.08;;
68484;SDS011;55472;50.060;21.960;2023-03-03T04:49:40;111.13;;;35.45;;
68484;SDS011;55472;50.060;21.960;2023-03-03T04:52:07;110.80;;;36.28;;
68484;SDS011;55472;50.060;21.960;2023-03-03T04:54:33;105.88;;;35.17;;
68484;SDS011;55472;50.060;21.960;2023-03-03T04:56:59;111.27;;;34.10;;
68484;SDS011;55472;50.060;21.960;2023-03-03T04:59:25;110.15;;;34.25;;
68484;SDS011;55472;50.060;21.960;2023-03-03T05:01:52;123.57;;;36.65;;
68484;SDS011;55472;50.060;21.960;2023-03-03T05:04:18;120.20;;;35.80;;
68484;SDS011;55472;50.060;21.960;2023-03-03T05:06:44;120.05;;;37.35;;
68484;SDS011;55472;50.060;21.960;2023-03-03T05:09:10;116.70;;;35.90;;
68484;SDS011;55472;50.060;21.960;2023-03-03T05:11:37;122.15;;;35.88;;
68484;SDS011;55472;50.060;21.960;2023-03-03T05:14:03;114.40;;;35.25;;
68484;SDS011;55472;50.060;21.960;2023-03-03T05:16:29;114.30;;;35.65;;
68484;SDS011;55472;50.060;21.960;2023-03-03T05:18:55;108.53;;;35.70;;
68484;SDS011;55472;50.060;21.960;2023-03-03T05:21:22;125.23;;;39.20;;
68484;SDS011;55472;50.060;21.960;2023-03-03T05:23:48;135.98;;;39.28;;
68484;SDS011;55472;50.060;21.960;2023-03-03T05:26:14;135.50;;;39.85;;
68484;SDS011;55472;50.060;21.960;2023-03-03T05:28:41;123.55;;;37.33;;
68484;SDS011;55472;50.060;21.960;2023-03-03T05:31:07;124.10;;;35.30;;
68484;SDS011;55472;50.060;21.960;2023-03-03T05:33:33;114.37;;;35.83;;
68484;SDS011;55472;50.060;21.960;2023-03-03T05:35:59;142.73;;;41.05;;
68484;SDS011;55472;50.060;21.960;2023-03-03T05:38:26;219.20;;;55.88;;
68484;SDS011;55472;50.060;21.960;2023-03-03T05:40:52;135.50;;;39.88;;
68484;SDS011;55472;50.060;21.960;2023-03-03T05:43:19;108.18;;;33.50;;
68484;SDS011;55472;50.060;21.960;2023-03-03T05:45:45;103.57;;;32.17;;
68484;SDS011;55472;50.060;21.960;2023-03-03T05:48:11;118.20;;;32.63;;
68484;SDS011;55472;50.060;21.960;2023-03-03T05:50:38;117.22;;;33.85;;
68484;SDS011;55472;50.060;21.960;2023-03-03T05:53:04;110.28;;;35.42;;
68484;SDS011;55472;50.060;21.960;2023-03-03T05:55:30;106.88;;;34.72;;
68484;SDS011;55472;50.060;21.960;2023-03-03T05:57:56;115.10;;;34.97;;
68484;SDS011;55472;50.060;21.960;2023-03-03T06:00:23;111.53;;;36.22;;
68484;SDS011;55472;50.060;21.960;2023-03-03T06:02:49;119.32;;;35.35;;
68484;SDS011;55472;50.060;21.960;2023-03-03T06:05:15;107.45;;;34.75;;
68484;SDS011;55472;50.060;21.960;2023-03-03T06:07:42;116.55;;;35.72;;
68484;SDS011;55472;50.060;21.960;2023-03-03T06:10:09;108.77;;;33.67;;
68484;SDS011;55472;50.060;21.960;2023-03-03T06:12:36;110.28;;;34.33;;
68484;SDS011;55472;50.060;21.960;2023-03-03T06:15:05;109.00;;;34.38;;
68484;SDS011;55472;50.060;21.960;2023-03-03T06:17:31;106.22;;;34.60;;
68484;SDS011;55472;50.060;21.960;2023-03-03T06:19:58;104.97;;;32.85;;
68484;SDS011;55472;50.060;21.960;2023-03-03T06:22:24;99.53;;;30.13;;
68484;SDS011;55472;50.060;21.960;2023-03-03T06:24:50;104.97;;;32.67;;
68484;SDS011;55472;50.060;21.960;2023-03-03T06:27:17;113.50;;;34.30;;
68484;SDS011;55472;50.060;21.960;2023-03-03T06:29:44;111.25;;;32.80;;
68484;SDS011;55472;50.060;21.960;2023-03-03T06:32:10;102.30;;;31.73;;
68484;SDS011;55472;50.060;21.960;2023-03-03T06:34:39;109.63;;;32.40;;
68484;SDS011;55472;50.060;21.960;2023-03-03T06:37:05;94.63;;;30.88;;
68484;SDS011;55472;50.060;21.960;2023-03-03T06:39:31;100.95;;;32.17;;
68484;SDS011;55472;50.060;21.960;2023-03-03T06:41:57;100.03;;;32.40;;
68484;SDS011;55472;50.060;21.960;2023-03-03T06:44:24;94.38;;;31.95;;
68484;SDS011;55472;50.060;21.960;2023-03-03T06:46:50;92.43;;;31.60;;
68484;SDS011;55472;50.060;21.960;2023-03-03T06:49:17;92.78;;;31.50;;
68484;SDS011;55472;50.060;21.960;2023-03-03T06:51:44;91.80;;;31.73;;
68484;SDS011;55472;50.060;21.960;2023-03-03T06:54:12;94.13;;;31.73;;
68484;SDS011;55472;50.060;21.960;2023-03-03T06:56:46;87.45;;;30.00;;
68484;SDS011;55472;50.060;21.960;2023-03-03T06:59:15;92.60;;;30.73;;
68484;SDS011;55472;50.060;21.960;2023-03-03T07:01:44;93.97;;;32.13;;
68484;SDS011;55472;50.060;21.960;2023-03-03T07:06:59;89.30;;;29.23;;
68484;SDS011;55472;50.060;21.960;2023-03-03T07:09:38;82.43;;;27.70;;
68484;SDS011;55472;50.060;21.960;2023-03-03T07:12:15;83.57;;;28.83;;
68484;SDS011;55472;50.060;21.960;2023-03-03T07:14:51;83.57;;;30.45;;
68484;SDS011;55472;50.060;21.960;2023-03-03T07:17:47;94.82;;;31.13;;
68484;SDS011;55472;50.060;21.960;2023-03-03T07:20:21;95.47;;;31.85;;
68484;SDS011;55472;50.060;21.960;2023-03-03T07:24:14;84.45;;;30.08;;
68484;SDS011;55472;50.060;21.960;2023-03-03T07:26:12;96.70;;;32.13;;
68484;SDS011;55472;50.060;21.960;2023-03-03T07:29:00;100.05;;;32.35;;
68484;SDS011;55472;50.060;21.960;2023-03-03T07:31:54;93.78;;;30.75;;
68484;SDS011;55472;50.060;21.960;2023-03-03T07:34:24;86.28;;;29.80;;
68484;SDS011;55472;50.060;21.960;2023-03-03T07:37:06;91.78;;;29.10;;
68484;SDS011;55472;50.060;21.960;2023-03-03T07:39:42;97.43;;;29.90;;
68484;SDS011;55472;50.060;21.960;2023-03-03T07:42:15;91.40;;;29.77;;
68484;SDS011;55472;50.060;21.960;2023-03-03T07:44:52;92.78;;;31.05;;
68484;SDS011;55472;50.060;21.960;2023-03-03T07:47:25;87.70;;;28.50;;
68484;SDS011;55472;50.060;21.960;2023-03-03T07:49:56;79.30;;;27.67;;
68484;SDS011;55472;50.060;21.960;2023-03-03T08:01:42;79.13;;;27.23;;
68484;SDS011;55472;50.060;21.960;2023-03-03T08:03:57;100.28;;;28.85;;
68484;SDS011;55472;50.060;21.960;2023-03-03T08:06:57;82.77;;;26.83;;
68484;SDS011;55472;50.060;21.960;2023-03-03T08:14:33;78.30;;;25.92;;
68484;SDS011;55472;50.060;21.960;2023-03-03T08:17:01;78.75;;;26.63;;
68484;SDS011;55472;50.060;21.960;2023-03-03T08:19:40;80.00;;;26.47;;
68484;SDS011;55472;50.060;21.960;2023-03-03T08:25:07;76.18;;;25.55;;
68484;SDS011;55472;50.060;21.960;2023-03-03T08:27:33;78.85;;;27.00;;
68484;SDS011;55472;50.060;21.960;2023-03-03T08:29:59;84.80;;;27.75;;
68484;SDS011;55472;50.060;21.960;2023-03-03T08:32:26;88.00;;;28.17;;
68484;SDS011;55472;50.060;21.960;2023-03-03T08:34:52;85.13;;;28.65;;
68484;SDS011;55472;50.060;21.960;2023-03-03T08:37:18;85.25;;;28.00;;
68484;SDS011;55472;50.060;21.960;2023-03-03T08:39:45;73.43;;;23.85;;
68484;SDS011;55472;50.060;21.960;2023-03-03T08:42:11;84.60;;;27.17;;
68484;SDS011;55472;50.060;21.960;2023-03-03T08:44:37;72.67;;;26.97;;
68484;SDS011;55472;50.060;21.960;2023-03-03T08:47:03;86.90;;;27.48;;
68484;SDS011;55472;50.060;21.960;2023-03-03T08:49:30;82.25;;;27.45;;
68484;SDS011;55472;50.060;21.960;2023-03-03T08:51:56;78.70;;;26.58;;
68484;SDS011;55472;50.060;21.960;2023-03-03T08:54:23;78.00;;;25.48;;
68484;SDS011;55472;50.060;21.960;2023-03-03T08:56:49;71.33;;;24.83;;
68484;SDS011;55472;50.060;21.960;2023-03-03T08:59:16;68.07;;;24.80;;
68484;SDS011;55472;50.060;21.960;2023-03-03T09:01:44;68.80;;;24.73;;
68484;SDS011;55472;50.060;21.960;2023-03-03T09:04:10;78.22;;;26.23;;
68484;SDS011;55472;50.060;21.960;2023-03-03T09:06:37;79.82;;;25.55;;
68484;SDS011;55472;50.060;21.960;2023-03-03T09:09:03;85.73;;;27.43;;
68484;SDS011;55472;50.060;21.960;2023-03-03T09:11:30;76.50;;;27.15;;
68484;SDS011;55472;50.060;21.960;2023-03-03T09:14:11;77.57;;;26.85;;
68484;SDS011;55472;50.060;21.960;2023-03-03T09:16:48;82.55;;;27.38;;
68484;SDS011;55472;50.060;21.960;2023-03-03T09:22:02;79.63;;;24.47;;
68484;SDS011;55472;50.060;21.960;2023-03-03T09:24:48;77.40;;;25.67;;
68484;SDS011;55472;50.060;21.960;2023-03-03T09:27:21;78.85;;;25.80;;
68484;SDS011;55472;50.060;21.960;2023-03-03T09:29:55;68.65;;;23.38;;
68484;SDS011;55472;50.060;21.960;2023-03-03T09:32:33;73.05;;;24.67;;
68484;SDS011;55472;50.060;21.960;2023-03-03T09:35:25;69.03;;;23.77;;
68484;SDS011;55472;50.060;21.960;2023-03-03T09:38:01;67.90;;;22.02;;
68484;SDS011;55472;50.060;21.960;2023-03-03T09:41:04;63.95;;;21.55;;
68484;SDS011;55472;50.060;21.960;2023-03-03T09:54:46;70.65;;;22.65;;
68484;SDS011;55472;50.060;21.960;2023-03-03T10:18:14;59.97;;;18.50;;
68484;SDS011;55472;50.060;21.960;2023-03-03T10:21:24;57.95;;;18.75;;
68484;SDS011;55472;50.060;21.960;2023-03-03T10:26:58;54.55;;;18.92;;
68484;SDS011;55472;50.060;21.960;2023-03-03T10:33:42;54.40;;;18.43;;
68484;SDS011;55472;50.060;21.960;2023-03-03T10:39:02;62.42;;;20.42;;
68484;SDS011;55472;50.060;21.960;2023-03-03T10:51:03;65.97;;;20.00;;
68484;SDS011;55472;50.060;21.960;2023-03-03T11:02:14;59.07;;;19.50;;
68484;SDS011;55472;50.060;21.960;2023-03-03T11:08:13;48.13;;;17.90;;
68484;SDS011;55472;50.060;21.960;2023-03-03T11:22:58;50.35;;;17.10;;
68484;SDS011;55472;50.060;21.960;2023-03-03T11:31:54;60.03;;;20.13;;
68484;SDS011;55472;50.060;21.960;2023-03-03T11:40:18;62.35;;;22.00;;
68484;SDS011;55472;50.060;21.960;2023-03-03T11:46:06;58.80;;;20.80;;
68484;SDS011;55472;50.060;21.960;2023-03-03T11:48:49;61.30;;;20.25;;
68484;SDS011;55472;50.060;21.960;2023-03-03T11:54:43;69.15;;;22.90;;
68484;SDS011;55472;50.060;21.960;2023-03-03T11:57:15;63.17;;;21.33;;
68484;SDS011;55472;50.060;21.960;2023-03-03T12:03:23;67.60;;;23.58;;
68484;SDS011;55472;50.060;21.960;2023-03-03T12:11:50;63.63;;;22.15;;
68484;SDS011;55472;50.060;21.960;2023-03-03T12:17:19;59.38;;;20.02;;
68484;SDS011;55472;50.060;21.960;2023-03-03T12:28:33;48.83;;;17.80;;
68484;SDS011;55472;50.060;21.960;2023-03-03T12:33:56;53.20;;;17.88;;
68484;SDS011;55472;50.060;21.960;2023-03-03T12:42:47;46.80;;;16.43;;
68484;SDS011;55472;50.060;21.960;2023-03-03T12:51:13;49.28;;;16.58;;
68484;SDS011;55472;50.060;21.960;2023-03-03T12:59:48;42.70;;;14.60;;
68484;SDS011;55472;50.060;21.960;2023-03-03T13:05:30;46.30;;;17.15;;
68484;SDS011;55472;50.060;21.960;2023-03-03T13:11:04;55.23;;;18.33;;
68484;SDS011;55472;50.060;21.960;2023-03-03T13:13:44;51.25;;;18.55;;
68484;SDS011;55472;50.060;21.960;2023-03-03T13:16:27;53.95;;;18.92;;
68484;SDS011;55472;50.060;21.960;2023-03-03T13:19:10;49.70;;;17.38;;
68484;SDS011;55472;50.060;21.960;2023-03-03T13:27:17;43.15;;;15.13;;
68484;SDS011;55472;50.060;21.960;2023-03-03T13:32:53;36.85;;;11.90;;
68484;SDS011;55472;50.060;21.960;2023-03-03T13:38:11;45.87;;;14.10;;
68484;SDS011;55472;50.060;21.960;2023-03-03T13:43:16;45.85;;;14.98;;
68484;SDS011;55472;50.060;21.960;2023-03-03T13:46:01;41.97;;;13.40;;
68484;SDS011;55472;50.060;21.960;2023-03-03T14:00:10;44.20;;;14.32;;
68484;SDS011;55472;50.060;21.960;2023-03-03T14:06:04;40.40;;;12.60;;
68484;SDS011;55472;50.060;21.960;2023-03-03T14:15:10;41.15;;;12.50;;
68484;SDS011;55472;50.060;21.960;2023-03-03T14:21:02;45.80;;;13.17;;
68484;SDS011;55472;50.060;21.960;2023-03-03T14:23:45;42.70;;;12.88;;
68484;SDS011;55472;50.060;21.960;2023-03-03T14:26:49;41.70;;;12.35;;
68484;SDS011;55472;50.060;21.960;2023-03-03T14:29:28;40.25;;;11.32;;
68484;SDS011;55472;50.060;21.960;2023-03-03T14:31:57;39.63;;;11.38;;
68484;SDS011;55472;50.060;21.960;2023-03-03T14:40:00;40.53;;;11.55;;
68484;SDS011;55472;50.060;21.960;2023-03-03T14:45:26;42.33;;;12.25;;
68484;SDS011;55472;50.060;21.960;2023-03-03T14:48:21;42.00;;;11.10;;
68484;SDS011;55472;50.060;21.960;2023-03-03T14:50:51;40.95;;;11.38;;
68484;SDS011;55472;50.060;21.960;2023-03-03T14:53:43;41.67;;;11.80;;
68484;SDS011;55472;50.060;21.960;2023-03-03T14:56:23;49.42;;;15.05;;
68484;SDS011;55472;50.060;21.960;2023-03-03T14:58:50;46.63;;;14.30;;
68484;SDS011;55472;50.060;21.960;2023-03-03T15:03:57;37.72;;;12.70;;
68484;SDS011;55472;50.060;21.960;2023-03-03T15:09:32;37.30;;;10.35;;
68484;SDS011;55472;50.060;21.960;2023-03-03T15:15:32;70.13;;;17.83;;
68484;SDS011;55472;50.060;21.960;2023-03-03T15:26:14;34.45;;;11.13;;
68484;SDS011;55472;50.060;21.960;2023-03-03T15:29:16;37.90;;;10.20;;
68484;SDS011;55472;50.060;21.960;2023-03-03T15:35:30;38.00;;;10.80;;
68484;SDS011;55472;50.060;21.960;2023-03-03T15:38:17;45.10;;;12.07;;
68484;SDS011;55472;50.060;21.960;2023-03-03T15:40:59;67.88;;;19.48;;
68484;SDS011;55472;50.060;21.960;2023-03-03T15:47:12;63.50;;;15.50;;
68484;SDS011;55472;50.060;21.960;2023-03-03T15:49:56;45.67;;;11.52;;
68484;SDS011;55472;50.060;21.960;2023-03-03T15:55:46;61.47;;;16.83;;
68484;SDS011;55472;50.060;21.960;2023-03-03T16:01:24;70.53;;;18.48;;
68484;SDS011;55472;50.060;21.960;2023-03-03T16:03:58;76.15;;;18.67;;
68484;SDS011;55472;50.060;21.960;2023-03-03T16:09:05;52.70;;;14.43;;
68484;SDS011;55472;50.060;21.960;2023-03-03T16:14:56;53.10;;;13.98;;
68484;SDS011;55472;50.060;21.960;2023-03-03T16:23:24;34.95;;;10.57;;
68484;SDS011;55472;50.060;21.960;2023-03-03T16:32:12;46.58;;;14.02;;
68484;SDS011;55472;50.060;21.960;2023-03-03T16:37:55;55.20;;;14.68;;
68484;SDS011;55472;50.060;21.960;2023-03-03T16:46:21;60.63;;;17.13;;
68484;SDS011;55472;50.060;21.960;2023-03-03T16:49:05;65.35;;;17.92;;
68484;SDS011;55472;50.060;21.960;2023-03-03T16:54:36;42.47;;;12.93;;
68484;SDS011;55472;50.060;21.960;2023-03-03T17:09:11;44.27;;;12.13;;
68484;SDS011;55472;50.060;21.960;2023-03-03T17:21:13;44.75;;;13.23;;
68484;SDS011;55472;50.060;21.960;2023-03-03T17:24:12;41.33;;;11.00;;
68484;SDS011;55472;50.060;21.960;2023-03-03T17:27:02;44.08;;;11.88;;
68484;SDS011;55472;50.060;21.960;2023-03-03T17:30:05;37.60;;;10.77;;
68484;SDS011;55472;50.060;21.960;2023-03-03T17:41:20;38.85;;;10.23;;
68484;SDS011;55472;50.060;21.960;2023-03-03T17:46:52;36.50;;;10.48;;
68484;SDS011;55472;50.060;21.960;2023-03-03T18:00:53;40.67;;;10.55;;
68484;SDS011;55472;50.060;21.960;2023-03-03T18:04:15;35.05;;;9.15;;
68484;SDS011;55472;50.060;21.960;2023-03-03T18:16:00;40.42;;;10.20;;
68484;SDS011;55472;50.060;21.960;2023-03-03T18:21:53;37.77;;;10.63;;
68484;SDS011;55472;50.060;21.960;2023-03-03T18:24:32;40.90;;;10.68;;
68484;SDS011;55472;50.060;21.960;2023-03-03T18:27:32;49.03;;;11.98;;
68484;SDS011;55472;50.060;21.960;2023-03-03T18:33:09;36.95;;;10.38;;
68484;SDS011;55472;50.060;21.960;2023-03-03T18:35:39;38.93;;;11.57;;
68484;SDS011;55472;50.060;21.960;2023-03-03T18:48:52;47.33;;;12.60;;
68484;SDS011;55472;50.060;21.960;2023-03-03T19:04:43;45.10;;;13.25;;
68484;SDS011;55472;50.060;21.960;2023-03-03T19:20:37;47.13;;;13.60;;
68484;SDS011;55472;50.060;21.960;2023-03-03T19:23:52;44.78;;;13.35;;
68484;SDS011;55472;50.060;21.960;2023-03-03T19:34:24;63.58;;;17.60;;
68484;SDS011;55472;50.060;21.960;2023-03-03T19:45:20;51.42;;;15.48;;
68484;SDS011;55472;50.060;21.960;2023-03-03T19:48:19;68.32;;;19.58;;
68484;SDS011;55472;50.060;21.960;2023-03-03T19:57:41;67.30;;;19.17;;
68484;SDS011;55472;50.060;21.960;2023-03-03T20:00:53;53.78;;;15.88;;
68484;SDS011;55472;50.060;21.960;2023-03-03T20:09:23;49.97;;;14.05;;
68484;SDS011;55472;50.060;21.960;2023-03-03T20:26:57;55.53;;;15.53;;
68484;SDS011;55472;50.060;21.960;2023-03-03T20:32:34;55.78;;;15.63;;
68484;SDS011;55472;50.060;21.960;2023-03-03T20:38:22;44.95;;;12.90;;
68484;SDS011;55472;50.060;21.960;2023-03-03T20:40:55;57.23;;;14.63;;
68484;SDS011;55472;50.060;21.960;2023-03-03T20:49:46;50.97;;;14.40;;
68484;SDS011;55472;50.060;21.960;2023-03-03T20:52:24;51.60;;;15.00;;
68484;SDS011;55472;50.060;21.960;2023-03-03T20:58:11;48.90;;;13.32;;
68484;SDS011;55472;50.060;21.960;2023-03-03T21:00:54;55.38;;;14.80;;
68484;SDS011;55472;50.060;21.960;2023-03-03T21:03:53;41.70;;;13.50;;
68484;SDS011;55472;50.060;21.960;2023-03-03T21:06:19;41.58;;;12.63;;
68484;SDS011;55472;50.060;21.960;2023-03-03T21:08:48;40.23;;;12.67;;
68484;SDS011;55472;50.060;21.960;2023-03-03T21:11:39;42.33;;;12.75;;
68484;SDS011;55472;50.060;21.960;2023-03-03T21:14:24;44.55;;;12.68;;
68484;SDS011;55472;50.060;21.960;2023-03-03T21:16:57;45.70;;;12.40;;
68484;SDS011;55472;50.060;21.960;2023-03-03T21:22:01;40.27;;;11.70;;
68484;SDS011;55472;50.060;21.960;2023-03-03T21:27:28;44.78;;;12.77;;
68484;SDS011;55472;50.060;21.960;2023-03-03T21:30:03;38.10;;;11.38;;
68484;SDS011;55472;50.060;21.960;2023-03-03T21:32:44;37.22;;;11.32;;
68484;SDS011;55472;50.060;21.960;2023-03-03T21:40:14;32.55;;;10.77;;
68484;SDS011;55472;50.060;21.960;2023-03-03T21:42:45;36.45;;;10.30;;
68484;SDS011;55472;50.060;21.960;2023-03-03T21:45:12;46.97;;;11.57;;
68484;SDS011;55472;50.060;21.960;2023-03-03T21:47:40;33.17;;;10.87;;
68484;SDS011;55472;50.060;21.960;2023-03-03T21:50:07;33.15;;;10.23;;
68484;SDS011;55472;50.060;21.960;2023-03-03T21:52:35;32.33;;;10.80;;
68484;SDS011;55472;50.060;21.960;2023-03-03T21:55:02;36.47;;;11.23;;
68484;SDS011;55472;50.060;21.960;2023-03-03T21:57:28;36.80;;;11.02;;
68484;SDS011;55472;50.060;21.960;2023-03-03T21:59:55;37.37;;;10.30;;
68484;SDS011;55472;50.060;21.960;2023-03-03T22:02:21;33.83;;;10.65;;
68484;SDS011;55472;50.060;21.960;2023-03-03T22:04:48;32.08;;;10.43;;
68484;SDS011;55472;50.060;21.960;2023-03-03T22:07:14;40.75;;;11.32;;
68484;SDS011;55472;50.060;21.960;2023-03-03T22:09:40;36.80;;;11.20;;
68484;SDS011;55472;50.060;21.960;2023-03-03T22:12:06;34.47;;;9.80;;
68484;SDS011;55472;50.060;21.960;2023-03-03T22:14:34;40.15;;;11.90;;
68484;SDS011;55472;50.060;21.960;2023-03-03T22:17:00;32.85;;;10.00;;
68484;SDS011;55472;50.060;21.960;2023-03-03T22:19:26;36.83;;;10.38;;
68484;SDS011;55472;50.060;21.960;2023-03-03T22:21:52;38.05;;;10.68;;